Time;durP1;ratioP1;P1;durP2;ratioP2;P2;SDS_P1;SDS_P2;PMS_P1;PMS_P2;Temp;Humidity;BMP_temperature;BMP_pressure;BME280_temperature;BME280_humidity;BME280_pressure;Samples;Min_cycle;Max_cycle;Signal;HPM_P1;HPM_P2
2021/12/23 00:02:08;;;;;;;62.90;28.30;;;-1.20;99.90;;;;;;5036864;28;20547;-75
2021/12/23 00:04:34;;;;;;;69.80;30.30;;;-1.10;99.90;;;;;;5032276;28;20671;-77
2021/12/23 00:06:59;;;;;;;66.60;29.03;;;-1.10;99.90;;;;;;5017223;28;20179;-76
2021/12/23 00:09:37;;;;;;;62.27;29.03;;;-1.10;99.90;;;;;;5036533;28;20209;-76
2021/12/23 00:12:03;;;;;;;64.37;28.43;;;-1.10;99.90;;;;;;5017946;28;20192;-76
2021/12/23 00:14:31;;;;;;;61.90;28.70;;;-1.20;99.90;;;;;;5025163;28;20205;-76
2021/12/23 00:17:18;;;;;;;62.93;28.97;;;-1.20;99.90;;;;;;5036641;28;20216;-75
2021/12/23 00:19:58;;;;;;;65.30;28.47;;;-1.20;99.90;;;;;;5036135;28;20203;-75
2021/12/23 00:25:08;;;;;;;61.23;27.00;;;-1.30;99.90;;;;;;5030023;28;20561;-76
2021/12/23 00:27:34;;;;;;;65.07;28.30;;;-1.30;99.90;;;;;;5018314;28;20188;-75
2021/12/23 00:29:59;;;;;;;67.53;27.93;;;-1.40;99.90;;;;;;5036418;28;20226;-75
2021/12/23 00:32:25;;;;;;;65.10;28.60;;;-1.50;99.90;;;;;;5036575;28;20202;-75
2021/12/23 00:34:50;;;;;;;68.07;28.53;;;-1.50;99.90;;;;;;5036092;28;20184;-76
2021/12/23 00:37:17;;;;;;;63.63;28.80;;;-1.50;99.90;;;;;;5029912;28;20171;-76
2021/12/23 00:39:45;;;;;;;65.67;28.87;;;-1.50;99.90;;;;;;5016879;28;20184;-75
2021/12/23 00:42:11;;;;;;;69.77;31.40;;;-1.50;99.90;;;;;;5016272;28;20208;-76
2021/12/23 00:44:40;;;;;;;64.20;27.73;;;-1.50;99.90;;;;;;4999376;28;20185;-76
2021/12/23 00:47:06;;;;;;;62.80;28.50;;;-1.40;99.90;;;;;;5035205;28;20177;-75
2021/12/23 00:49:32;;;;;;;66.87;29.23;;;-1.30;99.90;;;;;;5035792;28;20197;-75
2021/12/23 00:51:58;;;;;;;63.00;28.40;;;-1.20;99.90;;;;;;5018087;28;20183;-75
2021/12/23 00:54:24;;;;;;;65.33;29.80;;;-1.20;99.90;;;;;;5035924;28;20195;-75
2021/12/23 00:56:51;;;;;;;63.37;29.47;;;-1.20;99.90;;;;;;5018248;28;20180;-75
2021/12/23 00:59:16;;;;;;;59.63;28.97;;;-1.20;99.90;;;;;;5035680;28;20178;-75
2021/12/23 01:01:42;;;;;;;59.90;27.77;;;-1.20;99.90;;;;;;5017935;28;20184;-75
2021/12/23 01:04:08;;;;;;;61.47;27.70;;;-1.20;99.90;;;;;;5063139;23;20223;-74
2021/12/23 01:06:34;;;;;;;63.73;29.33;;;-1.10;99.90;;;;;;5036589;28;20177;-73
2021/12/23 01:08:59;;;;;;;67.27;28.77;;;-1.10;99.90;;;;;;5008632;28;20617;-75
2021/12/23 01:11:27;;;;;;;63.53;27.20;;;-1.20;99.90;;;;;;5025195;28;20240;-75
2021/12/23 01:14:24;;;;;;;66.10;28.93;;;-1.10;99.90;;;;;;5008238;28;20732;-74
2021/12/23 01:19:39;;;;;;;69.60;29.07;;;-1.00;99.90;;;;;;4998049;28;20660;-75
2021/12/23 01:22:06;;;;;;;61.27;27.93;;;-0.60;99.90;;;;;;5028394;28;20179;-74
2021/12/23 01:24:33;;;;;;;66.73;28.17;;;-1.30;99.90;;;;;;5046209;28;20690;-75
2021/12/23 01:27:02;;;;;;;64.77;27.60;;;-1.30;99.90;;;;;;5008670;28;20217;-74
2021/12/23 01:29:28;;;;;;;64.17;28.07;;;-1.30;99.90;;;;;;5040657;28;20208;-75
2021/12/23 01:31:54;;;;;;;65.03;29.13;;;-1.30;99.90;;;;;;5045783;28;20672;-74
2021/12/23 01:34:19;;;;;;;63.17;28.70;;;-1.30;99.90;;;;;;5027444;28;20197;-74
2021/12/23 01:36:45;;;;;;;62.77;28.37;;;-1.30;99.90;;;;;;5032670;28;20202;-75
2021/12/23 01:39:13;;;;;;;62.80;28.03;;;-1.30;99.90;;;;;;5035823;28;20185;-75
2021/12/23 01:41:40;;;;;;;62.77;27.37;;;-1.40;99.90;;;;;;5046065;28;20186;-74
2021/12/23 01:44:06;;;;;;;66.33;27.83;;;-1.30;99.90;;;;;;5027825;28;20295;-74
2021/12/23 01:46:31;;;;;;;64.90;28.07;;;-1.40;99.90;;;;;;5027103;28;20667;-75
2021/12/23 01:48:57;;;;;;;60.83;27.20;;;-1.40;99.90;;;;;;5045299;28;20202;-75
2021/12/23 01:51:23;;;;;;;65.70;27.43;;;-1.40;99.90;;;;;;5041683;28;20201;-75
2021/12/23 01:53:49;;;;;;;61.57;26.93;;;-1.30;99.90;;;;;;5026623;28;20199;-75
2021/12/23 01:56:15;;;;;;;63.07;28.23;;;-1.30;99.90;;;;;;5027664;28;20244;-75
2021/12/23 01:58:41;;;;;;;60.40;26.53;;;-1.30;99.90;;;;;;5045009;28;20646;-74
2021/12/23 02:01:08;;;;;;;58.60;26.30;;;-1.40;99.90;;;;;;5044325;28;20180;-75
2021/12/23 02:03:35;;;;;;;62.50;27.63;;;-1.70;99.90;;;;;;5045582;28;20280;-75
2021/12/23 02:06:00;;;;;;;69.13;28.80;;;-1.80;99.90;;;;;;5037303;28;20191;-74
2021/12/23 02:08:26;;;;;;;67.43;29.00;;;-1.90;99.90;;;;;;5007410;28;20171;-74
2021/12/23 02:10:55;;;;;;;62.53;27.10;;;-1.80;99.90;;;;;;5007570;28;20209;-75
2021/12/23 02:13:24;;;;;;;63.93;27.00;;;-1.70;99.90;;;;;;5007215;28;20178;-74
2021/12/23 02:15:50;;;;;;;67.17;27.60;;;-1.70;99.90;;;;;;5007475;28;20179;-76
2021/12/23 02:18:15;;;;;;;68.73;27.17;;;-1.70;99.90;;;;;;5006750;28;20269;-75
2021/12/23 02:20:41;;;;;;;66.67;27.40;;;-1.60;99.90;;;;;;5007319;28;20186;-75
2021/12/23 02:23:10;;;;;;;64.97;27.83;;;-1.50;99.90;;;;;;5007106;28;20287;-75
2021/12/23 02:25:36;;;;;;;63.33;27.10;;;-1.60;99.90;;;;;;5007338;28;20185;-75
2021/12/23 02:28:07;;;;;;;67.40;28.60;;;-1.60;99.90;;;;;;5030431;28;20645;-75
2021/12/23 02:30:36;;;;;;;64.17;26.07;;;-1.60;99.90;;;;;;5044830;28;20546;-75
2021/12/23 02:33:03;;;;;;;65.50;26.83;;;-1.50;99.90;;;;;;5045527;28;20263;-75
2021/12/23 02:35:28;;;;;;;57.47;26.20;;;-1.60;99.90;;;;;;5045727;28;20204;-75
2021/12/23 02:37:54;;;;;;;64.83;27.83;;;-1.60;99.90;;;;;;5033170;28;20180;-75
2021/12/23 02:40:29;;;;;;;56.57;26.33;;;-1.60;99.90;;;;;;5028404;28;20225;-75
2021/12/23 02:42:58;;;;;;;60.23;25.50;;;-1.50;99.90;;;;;;5048606;28;20180;-74
2021/12/23 02:45:23;;;;;;;61.13;27.93;;;-1.60;99.90;;;;;;5047970;28;20688;-75
2021/12/23 02:47:49;;;;;;;62.73;26.93;;;-1.60;99.90;;;;;;5024162;28;20217;-77
2021/12/23 02:50:15;;;;;;;58.60;26.77;;;-1.60;99.90;;;;;;5038431;28;20240;-75
2021/12/23 02:52:40;;;;;;;57.87;26.50;;;-1.60;99.90;;;;;;5043072;28;20185;-75
2021/12/23 02:55:06;;;;;;;57.33;26.17;;;-1.60;99.90;;;;;;5013165;28;20210;-76
2021/12/23 02:57:34;;;;;;;55.93;26.90;;;-1.70;99.90;;;;;;5025193;28;20252;-75
2021/12/23 03:00:01;;;;;;;61.97;27.10;;;-1.60;99.90;;;;;;5025802;28;20208;-75
2021/12/23 03:02:26;;;;;;;61.57;27.70;;;-1.60;99.90;;;;;;5032021;28;20192;-75
2021/12/23 03:04:52;;;;;;;55.03;26.13;;;-1.60;99.90;;;;;;5005875;28;20225;-75
2021/12/23 03:07:18;;;;;;;65.00;28.23;;;-1.60;99.90;;;;;;5030761;28;20235;-76
2021/12/23 03:09:47;;;;;;;63.13;27.17;;;-1.50;99.90;;;;;;5042943;28;20203;-76
2021/12/23 03:12:13;;;;;;;61.17;26.60;;;-1.60;99.90;;;;;;5024859;28;20191;-75
2021/12/23 03:14:39;;;;;;;59.17;26.10;;;-1.70;99.90;;;;;;5022554;28;20211;-76
2021/12/23 03:17:05;;;;;;;61.93;25.30;;;-1.80;99.90;;;;;;5038958;28;20189;-77
2021/12/23 03:19:31;;;;;;;61.27;27.53;;;-1.80;99.90;;;;;;5022299;28;20191;-76
2021/12/23 03:21:57;;;;;;;62.73;27.37;;;-1.80;99.90;;;;;;5024322;28;20279;-76
2021/12/23 03:24:22;;;;;;;60.30;25.90;;;-1.80;99.90;;;;;;5025365;28;20204;-76
2021/12/23 03:26:48;;;;;;;59.07;26.10;;;-1.80;99.90;;;;;;5042783;28;20180;-76
2021/12/23 03:29:14;;;;;;;62.70;27.83;;;-1.90;99.90;;;;;;5043408;28;20204;-76
2021/12/23 03:31:40;;;;;;;58.47;26.23;;;-1.90;99.90;;;;;;5042677;28;20171;-74
2021/12/23 03:34:06;;;;;;;63.30;27.93;;;-1.90;99.90;;;;;;5042846;28;20195;-75
2021/12/23 03:36:32;;;;;;;59.30;26.30;;;-1.90;99.90;;;;;;5025617;28;20171;-76
2021/12/23 03:38:58;;;;;;;63.97;27.93;;;-1.90;99.90;;;;;;5025801;28;20187;-76
2021/12/23 03:41:23;;;;;;;64.77;26.40;;;-1.90;99.90;;;;;;5024663;28;20204;-75
2021/12/23 03:43:51;;;;;;;61.77;26.93;;;-1.90;99.90;;;;;;5040041;28;20289;-76
2021/12/23 03:46:17;;;;;;;63.43;27.93;;;-1.90;99.90;;;;;;5019956;28;20181;-74
2021/12/23 03:48:42;;;;;;;62.60;27.37;;;-2.00;99.90;;;;;;5040522;28;20254;-75
2021/12/23 03:51:08;;;;;;;68.67;29.73;;;-2.00;99.90;;;;;;5041618;28;20178;-76
2021/12/23 03:53:34;;;;;;;62.77;26.50;;;-1.90;99.90;;;;;;5023358;28;20281;-75
2021/12/23 03:55:59;;;;;;;63.00;27.73;;;-1.90;99.90;;;;;;5033719;28;20182;-76
2021/12/23 03:58:25;;;;;;;60.77;26.30;;;-1.80;99.90;;;;;;5022136;28;20699;-75
2021/12/23 04:00:51;;;;;;;61.37;27.27;;;-1.80;99.90;;;;;;5023479;28;20566;-75
2021/12/23 04:03:16;;;;;;;64.40;27.87;;;-1.70;99.90;;;;;;5022595;28;20193;-76
2021/12/23 04:05:43;;;;;;;60.13;27.80;;;-1.70;99.90;;;;;;5014499;28;20195;-75
2021/12/23 04:08:09;;;;;;;68.27;29.00;;;-1.70;99.90;;;;;;5007768;28;20189;-75
2021/12/23 04:10:36;;;;;;;58.20;27.23;;;-1.70;99.90;;;;;;5006117;28;20574;-75
2021/12/23 04:13:02;;;;;;;60.67;26.70;;;-1.70;99.90;;;;;;5023109;28;20238;-76
2021/12/23 04:15:27;;;;;;;61.43;27.80;;;-1.70;99.90;;;;;;5043743;28;20209;-75
2021/12/23 04:17:53;;;;;;;59.43;24.90;;;-1.60;99.90;;;;;;5025871;28;20271;-76
2021/12/23 04:20:31;;;;;;;56.10;25.67;;;-1.70;99.90;;;;;;5043101;28;20626;-75
2021/12/23 04:22:57;;;;;;;63.33;27.70;;;-1.60;99.90;;;;;;5026103;28;20184;-75
2021/12/23 04:25:25;;;;;;;58.33;26.33;;;-1.80;99.90;;;;;;5023980;28;20203;-75
2021/12/23 04:27:54;;;;;;;62.13;27.07;;;-1.90;99.90;;;;;;5047003;28;20664;-75
2021/12/23 04:30:20;;;;;;;67.13;29.10;;;-1.90;99.90;;;;;;5029292;28;20197;-76
2021/12/23 04:32:46;;;;;;;60.23;26.60;;;-2.00;99.90;;;;;;5028928;28;20206;-75
2021/12/23 04:35:12;;;;;;;65.97;27.73;;;-1.90;99.90;;;;;;5028660;28;20257;-76
2021/12/23 04:37:39;;;;;;;63.40;26.80;;;-1.90;99.90;;;;;;5036359;28;20184;-75
2021/12/23 04:40:08;;;;;;;60.73;27.33;;;-1.80;99.90;;;;;;5026851;28;20184;-76
2021/12/23 04:42:34;;;;;;;65.77;27.67;;;-1.80;99.90;;;;;;5011794;28;20197;-75
2021/12/23 04:45:00;;;;;;;65.00;27.47;;;-1.80;99.90;;;;;;5029827;28;20204;-76
2021/12/23 04:47:25;;;;;;;63.30;27.97;;;-1.80;99.90;;;;;;5046873;28;20178;-75
2021/12/23 04:49:51;;;;;;;63.17;26.90;;;-1.80;99.90;;;;;;5045278;28;20320;-75
2021/12/23 04:52:17;;;;;;;60.30;27.87;;;-1.80;99.90;;;;;;5045730;28;20181;-74
2021/12/23 04:54:42;;;;;;;64.30;28.07;;;-1.90;99.90;;;;;;5028173;28;20200;-75
2021/12/23 04:57:08;;;;;;;64.27;27.60;;;-2.00;99.90;;;;;;5046197;28;20187;-75
2021/12/23 04:59:34;;;;;;;63.60;27.83;;;-2.00;99.90;;;;;;5028708;28;20190;-76
2021/12/23 05:02:00;;;;;;;63.27;28.87;;;-2.00;99.90;;;;;;5040727;28;20270;-76
2021/12/23 05:04:25;;;;;;;59.73;26.70;;;-2.00;99.90;;;;;;5045044;28;20584;-74
2021/12/23 05:06:51;;;;;;;67.27;28.40;;;-2.10;99.90;;;;;;5026571;28;20196;-76
2021/12/23 05:09:16;;;;;;;57.27;26.13;;;-2.10;99.90;;;;;;5039338;28;20197;-76
2021/12/23 05:11:44;;;;;;;60.93;26.27;;;-2.10;99.90;;;;;;5026645;28;20180;-75
2021/12/23 05:14:10;;;;;;;68.53;28.80;;;-2.00;99.90;;;;;;5045789;28;20210;-76
2021/12/23 05:16:36;;;;;;;61.30;26.80;;;-2.10;99.90;;;;;;5026987;28;20183;-75
2021/12/23 05:19:02;;;;;;;66.00;28.00;;;-2.00;99.90;;;;;;5045760;28;20191;-74
2021/12/23 05:21:28;;;;;;;62.27;26.70;;;-2.00;99.90;;;;;;5027596;28;20228;-74
2021/12/23 05:23:53;;;;;;;56.27;25.50;;;-1.40;99.90;;;;;;5027899;28;20216;-75
2021/12/23 05:26:19;;;;;;;60.63;26.87;;;-2.00;99.90;;;;;;5028178;28;20223;-76
2021/12/23 05:28:45;;;;;;;56.00;25.67;;;-2.00;99.90;;;;;;5027871;28;20648;-75
2021/12/23 05:31:10;;;;;;;61.53;26.93;;;-2.10;99.90;;;;;;5028067;28;20207;-75
2021/12/23 05:33:36;;;;;;;61.63;26.77;;;-2.20;99.90;;;;;;5027872;28;20209;-75
2021/12/23 05:36:02;;;;;;;67.00;26.23;;;-2.30;99.90;;;;;;5043536;28;20194;-75
2021/12/23 05:38:28;;;;;;;58.63;26.93;;;-2.40;99.90;;;;;;5024134;28;20251;-74
2021/12/23 05:40:53;;;;;;;57.77;26.43;;;-2.40;99.90;;;;;;5045597;28;20215;-75
2021/12/23 05:43:19;;;;;;;63.37;26.83;;;-2.40;99.90;;;;;;5045161;28;20195;-76
2021/12/23 05:45:45;;;;;;;62.77;26.43;;;-2.40;99.90;;;;;;5021522;28;20280;-75
2021/12/23 05:48:11;;;;;;;61.50;26.50;;;-2.40;99.90;;;;;;5028099;28;20198;-74
2021/12/23 05:50:36;;;;;;;67.07;27.33;;;-2.40;99.90;;;;;;5031916;28;20204;-75
2021/12/23 05:53:02;;;;;;;59.33;25.90;;;-2.30;99.90;;;;;;5023681;28;20705;-76
2021/12/23 05:55:28;;;;;;;61.87;27.57;;;-2.30;99.90;;;;;;5030927;28;20209;-76
2021/12/23 05:57:54;;;;;;;67.60;28.30;;;-2.40;99.90;;;;;;5030354;28;20180;-76
2021/12/23 06:00:25;;;;;;;61.10;26.77;;;-2.40;99.90;;;;;;5016647;28;20244;-74
2021/12/23 06:02:51;;;;;;;66.30;26.97;;;-2.40;99.90;;;;;;5022839;28;20213;-76
2021/12/23 06:05:18;;;;;;;62.40;26.40;;;-2.40;99.90;;;;;;5023130;28;20208;-75
2021/12/23 06:07:44;;;;;;;65.70;28.50;;;-2.30;99.90;;;;;;5028504;28;20185;-76
2021/12/23 06:10:11;;;;;;;64.67;27.50;;;-2.30;99.90;;;;;;5025982;28;20193;-75
2021/12/23 06:12:37;;;;;;;64.30;27.07;;;-2.30;99.90;;;;;;5024517;28;20176;-75
2021/12/23 06:15:03;;;;;;;66.70;27.07;;;-2.20;99.90;;;;;;5009047;28;20207;-76
2021/12/23 06:17:29;;;;;;;62.53;27.43;;;-2.20;99.90;;;;;;5031474;28;20247;-75
2021/12/23 06:19:55;;;;;;;66.73;28.10;;;-2.20;99.90;;;;;;5016045;28;20200;-76
2021/12/23 06:22:20;;;;;;;66.73;27.87;;;-2.20;99.90;;;;;;5024593;28;20193;-77
2021/12/23 06:24:48;;;;;;;65.03;27.37;;;-2.10;99.90;;;;;;5026054;28;20216;-76
2021/12/23 06:27:18;;;;;;;71.30;28.37;;;-2.10;99.90;;;;;;5032995;28;20181;-76
2021/12/23 06:29:44;;;;;;;66.20;27.73;;;-2.10;99.90;;;;;;5024569;28;20211;-76
2021/12/23 06:32:10;;;;;;;65.00;27.63;;;-2.00;99.90;;;;;;5030349;28;20186;-76
2021/12/23 06:34:36;;;;;;;71.50;28.97;;;-2.00;99.90;;;;;;5032852;28;20218;-77
2021/12/23 06:37:04;;;;;;;65.63;28.37;;;-2.10;99.90;;;;;;5015968;28;20611;-76
2021/12/23 06:39:31;;;;;;;64.53;27.50;;;-2.10;99.90;;;;;;5016048;28;20187;-76
2021/12/23 06:41:56;;;;;;;66.87;28.97;;;-2.10;99.90;;;;;;5030852;28;20185;-78
2021/12/23 06:44:23;;;;;;;58.60;26.63;;;-2.10;99.90;;;;;;5032969;28;20197;-77
2021/12/23 06:46:49;;;;;;;67.43;29.40;;;-2.10;99.90;;;;;;5033639;28;20661;-77
2021/12/23 06:49:15;;;;;;;69.30;29.70;;;-2.00;99.90;;;;;;5015942;28;20211;-78
2021/12/23 06:51:41;;;;;;;65.30;28.90;;;-1.90;99.90;;;;;;5033322;28;20223;-76
2021/12/23 06:54:08;;;;;;;68.97;29.40;;;-1.90;99.90;;;;;;5002508;28;20762;-76
2021/12/23 06:56:34;;;;;;;66.57;29.33;;;-2.00;99.90;;;;;;5022134;28;20186;-76
2021/12/23 06:59:00;;;;;;;75.73;30.60;;;-2.00;99.90;;;;;;5027444;28;20173;-76
2021/12/23 07:01:26;;;;;;;65.03;29.33;;;-2.00;99.90;;;;;;5033052;28;20189;-77
2021/12/23 07:06:30;;;;;;;68.07;28.67;;;-2.00;99.90;;;;;;5026975;28;20184;-76
2021/12/23 07:08:56;;;;;;;67.00;28.50;;;-1.90;99.90;;;;;;5025072;28;20205;-76
2021/12/23 07:11:22;;;;;;;62.90;26.80;;;-1.90;99.90;;;;;;5027753;28;20209;-77
2021/12/23 07:13:48;;;;;;;70.57;28.87;;;-1.80;99.90;;;;;;5013187;28;20196;-77
2021/12/23 07:16:14;;;;;;;65.73;27.60;;;-1.80;99.90;;;;;;5013738;28;20184;-76
2021/12/23 07:18:39;;;;;;;66.50;27.90;;;-1.80;99.90;;;;;;5027713;28;20203;-77
2021/12/23 07:21:05;;;;;;;64.33;28.47;;;-1.90;99.90;;;;;;5012838;28;20283;-75
2021/12/23 07:23:31;;;;;;;62.90;27.90;;;-1.80;99.90;;;;;;5021935;28;20204;-76
2021/12/23 07:25:56;;;;;;;66.30;27.67;;;-1.80;99.90;;;;;;5028205;28;20247;-77
2021/12/23 07:28:22;;;;;;;62.67;27.07;;;-1.70;99.90;;;;;;5009239;28;20202;-76
2021/12/23 07:30:48;;;;;;;66.90;28.27;;;-1.70;99.90;;;;;;5019327;28;20240;-76
2021/12/23 07:33:13;;;;;;;65.27;28.67;;;-1.70;99.90;;;;;;5011904;28;20274;-77
2021/12/23 07:35:40;;;;;;;62.80;27.23;;;-1.70;99.90;;;;;;5005679;28;20183;-77
2021/12/23 07:38:06;;;;;;;62.17;28.13;;;-1.70;99.90;;;;;;5027182;28;20173;-78
2021/12/23 07:40:32;;;;;;;60.07;26.97;;;-1.70;99.90;;;;;;5020928;28;20195;-78
2021/12/23 07:43:09;;;;;;;62.73;27.07;;;-1.60;99.90;;;;;;5002622;28;20182;-77
2021/12/23 07:45:35;;;;;;;58.20;26.97;;;-1.60;99.90;;;;;;5028013;28;20173;-77
2021/12/23 07:48:01;;;;;;;60.10;27.90;;;-1.60;99.90;;;;;;5024502;28;20194;-76
2021/12/23 07:50:27;;;;;;;63.37;27.57;;;-1.60;99.90;;;;;;5024929;28;20259;-77
2021/12/23 07:52:53;;;;;;;69.87;29.53;;;-1.40;99.90;;;;;;5002082;28;20258;-76
2021/12/23 07:55:20;;;;;;;64.53;28.60;;;-1.50;99.90;;;;;;5029615;28;20633;-76
2021/12/23 07:57:46;;;;;;;63.47;27.43;;;-1.50;99.90;;;;;;5020729;28;20665;-76
2021/12/23 08:00:12;;;;;;;61.07;26.87;;;-1.50;99.90;;;;;;5008822;28;20224;-76
2021/12/23 08:02:37;;;;;;;65.27;27.63;;;-1.50;99.90;;;;;;5024904;28;20181;-76
2021/12/23 08:05:03;;;;;;;59.43;27.33;;;-1.40;99.90;;;;;;5034092;28;20623;-76
2021/12/23 08:07:29;;;;;;;68.80;27.77;;;-1.40;99.90;;;;;;5024894;28;20735;-76
2021/12/23 08:09:55;;;;;;;62.47;27.70;;;-1.40;99.90;;;;;;5016322;28;20245;-76
2021/12/23 08:12:20;;;;;;;59.83;26.43;;;-1.40;99.90;;;;;;5031263;28;20181;-77
2021/12/23 08:14:46;;;;;;;63.97;27.73;;;-1.40;99.90;;;;;;5032589;28;20331;-76
2021/12/23 08:17:11;;;;;;;62.47;27.50;;;-1.40;99.90;;;;;;5033178;28;20182;-76
2021/12/23 08:19:37;;;;;;;66.07;28.23;;;-1.40;99.90;;;;;;5028501;28;20183;-77
2021/12/23 08:22:03;;;;;;;63.83;27.10;;;-1.30;99.90;;;;;;5032094;28;20240;-76
2021/12/23 08:24:29;;;;;;;61.57;28.07;;;-1.30;99.90;;;;;;5029614;28;21667;-77
2021/12/23 08:26:55;;;;;;;58.63;26.93;;;-1.30;99.90;;;;;;5029505;28;20237;-76
2021/12/23 08:29:22;;;;;;;61.67;27.00;;;-1.30;99.90;;;;;;5031833;28;20202;-76
2021/12/23 08:31:55;;;;;;;65.03;27.90;;;-1.20;99.90;;;;;;5029774;28;20647;-78
2021/12/23 08:34:22;;;;;;;65.53;27.80;;;-1.10;99.90;;;;;;5015289;28;20229;-73
2021/12/23 08:36:48;;;;;;;64.20;26.97;;;-1.20;99.90;;;;;;5029284;28;20236;-74
2021/12/23 08:39:15;;;;;;;65.80;26.53;;;-1.10;99.90;;;;;;5008823;28;20178;-74
2021/12/23 08:41:41;;;;;;;64.47;27.53;;;-1.10;99.90;;;;;;5030264;28;20186;-74
2021/12/23 08:44:07;;;;;;;64.17;27.37;;;-1.10;99.90;;;;;;5029969;28;20205;-75
2021/12/23 08:46:33;;;;;;;59.97;27.27;;;-1.10;99.90;;;;;;5005222;28;20175;-74
2021/12/23 08:48:58;;;;;;;62.93;27.80;;;-1.00;99.90;;;;;;5024880;28;20186;-77
2021/12/23 08:51:24;;;;;;;59.27;26.23;;;-0.90;99.90;;;;;;5011522;28;20192;-75
2021/12/23 08:53:50;;;;;;;59.37;25.97;;;-0.90;99.90;;;;;;5027278;28;20201;-75
2021/12/23 08:56:16;;;;;;;55.37;26.07;;;-0.90;99.90;;;;;;5025390;28;20598;-75
2021/12/23 08:58:42;;;;;;;59.50;25.53;;;-0.90;99.90;;;;;;5029770;28;20718;-74
2021/12/23 09:01:08;;;;;;;67.53;28.73;;;-0.90;99.90;;;;;;5016566;28;20557;-75
2021/12/23 09:03:35;;;;;;;60.37;27.10;;;-0.90;99.90;;;;;;5030791;28;20213;-74
2021/12/23 09:06:02;;;;;;;69.40;29.17;;;-0.90;99.90;;;;;;5031018;28;20178;-75
2021/12/23 09:08:28;;;;;;;63.73;27.23;;;-0.90;99.90;;;;;;5028499;28;20189;-76
2021/12/23 09:10:55;;;;;;;57.73;26.17;;;-0.80;99.90;;;;;;5028791;28;20194;-75
2021/12/23 09:13:21;;;;;;;62.03;25.80;;;-0.70;99.90;;;;;;5028472;28;20185;-76
2021/12/23 09:15:47;;;;;;;68.33;28.23;;;-0.70;99.90;;;;;;5030215;28;20178;-75
2021/12/23 09:18:13;;;;;;;64.77;27.93;;;-0.70;99.90;;;;;;5030026;28;20182;-74
2021/12/23 09:20:39;;;;;;;60.40;26.80;;;-0.60;99.90;;;;;;5025690;28;20678;-76
2021/12/23 09:23:07;;;;;;;55.17;25.43;;;-0.60;99.90;;;;;;5029303;28;20178;-77
2021/12/23 09:25:33;;;;;;;66.23;28.93;;;-0.50;99.90;;;;;;5030350;28;20193;-75
2021/12/23 09:33:12;;;;;;;60.57;27.50;;;-0.40;99.90;;;;;;5023302;28;20201;-76
2021/12/23 09:35:39;;;;;;;59.20;26.77;;;-0.50;99.90;;;;;;5015542;28;20554;-76
2021/12/23 09:38:05;;;;;;;62.33;27.67;;;-0.40;99.90;;;;;;5031280;28;20496;-75
2021/12/23 09:40:33;;;;;;;61.03;28.37;;;-0.40;99.90;;;;;;5028082;28;20182;-76
2021/12/23 09:43:05;;;;;;;60.10;27.43;;;-0.40;99.90;;;;;;5011976;28;20182;-76
2021/12/23 09:45:33;;;;;;;63.87;27.67;;;-0.40;99.90;;;;;;5026274;28;20674;-74
2021/12/23 09:48:02;;;;;;;55.90;26.67;;;-0.30;99.90;;;;;;5015978;28;20193;-76
2021/12/23 09:50:30;;;;;;;60.60;27.03;;;-0.20;99.90;;;;;;5029709;28;20194;-75
2021/12/23 09:52:56;;;;;;;61.30;27.50;;;-0.10;99.90;;;;;;5022181;28;20202;-75
2021/12/23 09:55:26;;;;;;;61.87;26.03;;;0.00;99.90;;;;;;5011260;28;20245;-75
2021/12/23 09:57:54;;;;;;;64.57;27.27;;;0.80;99.90;;;;;;5004639;28;20182;-75
2021/12/23 10:00:22;;;;;;;74.70;29.50;;;0.10;99.90;;;;;;5026462;28;20185;-75
2021/12/23 10:02:49;;;;;;;60.47;26.53;;;0.10;99.90;;;;;;5028827;28;20186;-75
2021/12/23 10:05:18;;;;;;;54.27;25.03;;;0.10;99.90;;;;;;5027898;28;20234;-75
2021/12/23 10:07:46;;;;;;;61.43;27.13;;;0.20;99.90;;;;;;5025023;28;20187;-74
2021/12/23 10:10:25;;;;;;;50.90;24.00;;;0.20;99.90;;;;;;5010244;28;20667;-75
2021/12/23 10:30:28;;;;;;;54.47;25.30;;;0.50;99.90;;;;;;5026903;28;20241;-76
2021/12/23 10:38:44;;;;;;;48.90;24.33;;;0.70;99.90;;;;;;5030986;28;20193;-74
2021/12/23 10:41:11;;;;;;;50.30;24.60;;;0.70;99.90;;;;;;5030767;28;20178;-73
2021/12/23 10:43:42;;;;;;;49.97;24.87;;;0.80;99.90;;;;;;5031406;28;20190;-75
2021/12/23 10:46:12;;;;;;;51.83;24.97;;;0.70;99.90;;;;;;5026062;28;20207;-74
2021/12/23 10:49:23;;;;;;;58.87;24.97;;;0.70;99.90;;;;;;5025088;28;20182;-74
2021/12/23 10:52:05;;;;;;;53.43;25.73;;;0.80;99.90;;;;;;5022999;28;20263;-76
2021/12/23 11:00:19;;;;;;;60.97;28.40;;;0.90;99.90;;;;;;5030366;28;20220;-76
2021/12/23 11:03:09;;;;;;;52.97;24.37;;;1.00;99.90;;;;;;5010553;28;20596;-76
2021/12/23 11:05:46;;;;;;;53.50;24.23;;;1.10;99.90;;;;;;5021480;28;20182;-76
2021/12/23 11:31:51;;;;;;;45.17;22.57;;;1.80;99.90;;;;;;5026754;28;20584;-75
2021/12/23 11:43:53;;;;;;;46.43;21.70;;;1.90;99.90;;;;;;5026023;28;20199;-76
2021/12/23 11:46:25;;;;;;;47.57;21.97;;;1.80;99.90;;;;;;5030349;28;20186;-76
2021/12/23 11:48:54;;;;;;;45.23;22.13;;;1.80;99.90;;;;;;5025657;28;20182;-75
2021/12/23 11:53:58;;;;;;;47.37;21.40;;;1.90;99.90;;;;;;5032410;28;20199;-77
2021/12/23 11:56:25;;;;;;;50.83;22.47;;;2.00;99.90;;;;;;5029325;28;20177;-76
2021/12/23 11:58:51;;;;;;;42.43;20.47;;;1.90;99.90;;;;;;5026158;28;20175;-77
2021/12/23 12:01:20;;;;;;;44.07;21.40;;;2.10;99.90;;;;;;5012143;28;20656;-76
2021/12/23 12:03:53;;;;;;;46.60;21.67;;;2.10;99.90;;;;;;5026675;28;20217;-76
2021/12/23 12:06:23;;;;;;;45.50;21.90;;;2.20;99.90;;;;;;5019734;28;20179;-76
2021/12/23 12:09:07;;;;;;;45.77;21.90;;;2.10;99.90;;;;;;5006178;28;20179;-75
2021/12/23 12:11:33;;;;;;;46.40;20.80;;;2.20;99.90;;;;;;5023544;28;20186;-76
2021/12/23 12:13:59;;;;;;;44.27;20.83;;;2.00;99.90;;;;;;5011173;28;20198;-76
2021/12/23 12:16:29;;;;;;;47.23;21.70;;;2.30;99.90;;;;;;5026571;28;20178;-75
2021/12/23 12:18:54;;;;;;;49.67;21.90;;;2.30;99.90;;;;;;5028651;28;20170;-76
2021/12/23 12:21:31;;;;;;;49.30;21.87;;;2.20;99.90;;;;;;5027159;28;20194;-75
2021/12/23 12:24:18;;;;;;;50.00;22.23;;;2.20;99.90;;;;;;5025541;28;20635;-77
2021/12/23 12:27:01;;;;;;;42.77;20.87;;;2.20;99.90;;;;;;5020206;28;20189;-78
2021/12/23 12:29:38;;;;;;;48.07;21.50;;;2.30;99.90;;;;;;5005820;28;20202;-77
2021/12/23 12:32:05;;;;;;;48.43;21.80;;;2.40;99.90;;;;;;5009515;28;20185;-74
2021/12/23 12:34:36;;;;;;;43.50;21.97;;;2.40;99.90;;;;;;5027975;28;20205;-76
2021/12/23 12:37:07;;;;;;;41.43;21.27;;;2.50;99.90;;;;;;5022528;28;20183;-77
2021/12/23 12:39:41;;;;;;;46.20;22.00;;;2.50;99.90;;;;;;5004809;28;20649;-75
2021/12/23 12:42:11;;;;;;;48.53;21.47;;;2.60;99.90;;;;;;5014108;28;20182;-75
2021/12/23 12:44:50;;;;;;;48.57;21.17;;;2.60;99.90;;;;;;5021833;28;20199;-77
2021/12/23 12:47:27;;;;;;;46.23;21.43;;;2.70;99.90;;;;;;5013692;28;20185;-76
2021/12/23 12:50:11;;;;;;;45.90;22.13;;;2.70;99.90;;;;;;5032519;28;20205;-76
2021/12/23 12:52:41;;;;;;;43.07;19.00;;;2.60;99.90;;;;;;5031669;28;20263;-78
2021/12/23 12:55:16;;;;;;;45.30;22.03;;;2.60;99.90;;;;;;5035274;28;20198;-79
2021/12/23 12:57:48;;;;;;;42.83;22.07;;;2.60;99.90;;;;;;5031398;28;20175;-79
2021/12/23 13:00:16;;;;;;;45.47;21.97;;;2.60;99.90;;;;;;5032699;28;20640;-78
2021/12/23 13:02:48;;;;;;;47.00;21.27;;;2.60;99.90;;;;;;5033467;28;20183;-77
2021/12/23 13:05:14;;;;;;;45.77;20.73;;;2.70;99.90;;;;;;5040530;23;20257;-75
2021/12/23 13:07:42;;;;;;;51.13;21.03;;;2.70;99.90;;;;;;5028352;28;20199;-76
2021/12/23 13:10:21;;;;;;;46.77;22.87;;;2.70;99.90;;;;;;5028734;28;20264;-76
2021/12/23 13:12:55;;;;;;;49.97;22.83;;;2.80;99.90;;;;;;5013223;28;20642;-77
2021/12/23 13:15:29;;;;;;;49.63;21.13;;;3.00;99.90;;;;;;5018184;28;20652;-76
2021/12/23 13:18:01;;;;;;;48.90;21.07;;;3.10;99.90;;;;;;5008706;28;20226;-77
2021/12/23 13:20:47;;;;;;;53.03;21.87;;;3.10;99.90;;;;;;5019263;28;20183;-76
2021/12/23 13:23:18;;;;;;;46.53;21.67;;;3.20;99.90;;;;;;5013891;28;20176;-76
2021/12/23 13:25:57;;;;;;;45.97;21.40;;;3.20;99.90;;;;;;5021360;28;20568;-76
2021/12/23 13:28:46;;;;;;;51.47;23.53;;;3.20;99.90;;;;;;5010787;28;20179;-75
2021/12/23 13:31:20;;;;;;;44.40;22.23;;;3.20;99.90;;;;;;5003469;28;20195;-76
2021/12/23 13:33:49;;;;;;;46.37;21.87;;;3.20;99.90;;;;;;5005126;28;20229;-77
2021/12/23 13:36:22;;;;;;;45.00;20.73;;;3.30;99.90;;;;;;5005829;28;20660;-79
2021/12/23 13:38:56;;;;;;;34.33;15.57;;;3.40;99.90;;;;;;4994636;28;20676;-77
2021/12/23 13:41:27;;;;;;;44.00;20.70;;;3.30;99.90;;;;;;4991508;28;20512;-76
2021/12/23 13:43:59;;;;;;;49.00;22.83;;;3.20;99.90;;;;;;5021462;28;20189;-76
2021/12/23 13:46:28;;;;;;;51.43;23.10;;;3.20;99.90;;;;;;5025834;28;20198;-77
2021/12/23 13:48:58;;;;;;;49.83;22.70;;;3.30;99.90;;;;;;5008160;28;20560;-76
2021/12/23 13:51:28;;;;;;;52.47;22.47;;;3.30;99.90;;;;;;5006704;28;20183;-75